Time;durP1;ratioP1;P1;durP2;ratioP2;P2;SDS_P1;SDS_P2;PMS_P1;PMS_P2;Temp;Humidity;BMP_temperature;BMP_pressure;BME280_temperature;BME280_humidity;BME280_pressure;Samples;Min_cycle;Max_cycle;Signal;HPM_P1;HPM_P2
2021/10/24 00:01:52;;;;;;;;;;;;;;;4.14;100.00;102712.88;4895768;29;19927;-46
2021/10/24 00:04:19;;;;;;;;;;;;;;;4.15;100.00;102718.06;4897915;29;19967;-45
2021/10/24 00:06:45;;;;;;;;;;;;;;;4.10;100.00;102714.63;4899623;29;19956;-44
2021/10/24 00:09:12;;;;;;;;;;;;;;;4.06;100.00;102715.53;4897299;29;19928;-43
2021/10/24 00:11:39;;;;;;;;;;;;;;;4.04;100.00;102710.34;4895870;29;20355;-46
2021/10/24 00:14:07;;;;;;;;;;;;;;;4.01;100.00;102707.78;4899394;29;19931;-45
2021/10/24 00:16:34;;;;;;;;;;;;;;;3.97;100.00;102711.28;4897842;29;20391;-44
2021/10/24 00:19:01;;;;;;;;;;;;;;;3.99;100.00;102706.06;4896995;29;19928;-43
2021/10/24 00:21:28;;;;;;;;;;;;;;;3.97;100.00;102713.03;4896118;29;19931;-44
2021/10/24 00:23:54;;;;;;;;;;;;;;;4.00;100.00;102716.47;4896244;29;19932;-47
2021/10/24 00:26:21;;;;;;;;;;;;;;;3.98;100.00;102712.13;4896267;29;19965;-50
2021/10/24 00:28:48;;;;;;;;;;;;;;;4.03;100.00;102715.56;4896628;29;19987;-52
2021/10/24 00:31:15;;;;;;;;;;;;;;;3.92;100.00;102707.84;4897255;29;19938;-52
2021/10/24 00:33:41;;;;;;;;;;;;;;;3.91;100.00;102705.25;4895946;29;19931;-53
2021/10/24 00:36:19;;;;;;;;;;;;;;;3.90;100.00;102709.63;4883337;29;19932;-54
2021/10/24 00:38:46;;;;;;;;;;;;;;;3.85;100.00;102707.03;4898894;29;19931;-50
2021/10/24 00:41:12;;;;;;;;;;;;;;;3.84;100.00;102709.63;4898919;29;19945;-51
2021/10/24 00:43:39;;;;;;;;;;;;;;;3.84;100.00;102704.44;4896881;29;19927;-55
2021/10/24 00:46:06;;;;;;;;;;;;;;;3.83;100.00;102706.19;4878273;29;19935;-54
2021/10/24 00:48:52;;;;;;;;;;;;;;;3.79;100.00;102701.00;4881998;29;19960;-53
2021/10/24 00:51:19;;;;;;;;;;;;;;;3.78;100.00;102702.75;4879793;29;20410;-52
2021/10/24 00:53:46;;;;;;;;;;;;;;;3.79;100.00;102696.66;4880372;29;19935;-52
2021/10/24 00:56:12;;;;;;;;;;;;;;;3.82;100.00;102701.84;4895985;29;19927;-54
2021/10/24 00:58:39;;;;;;;;;;;;;;;3.78;100.00;102700.16;4894887;29;19967;-54
2021/10/24 01:01:06;;;;;;;;;;;;;;;3.84;100.00;102696.63;4877867;29;20291;-51
2021/10/24 01:03:33;;;;;;;;;;;;;;;3.75;100.00;102692.38;4895881;29;19927;-46
2021/10/24 01:06:01;;;;;;;;;;;;;;;3.76;100.00;102696.66;4898326;29;19998;-50
2021/10/24 01:08:27;;;;;;;;;;;;;;;3.76;100.00;102690.63;4898093;29;19956;-51
2021/10/24 01:10:54;;;;;;;;;;;;;;;3.82;100.00;102693.19;4898267;29;19927;-50
2021/10/24 01:13:21;;;;;;;;;;;;;;;3.77;100.00;102688.00;4878835;29;19931;-54
2021/10/24 01:15:47;;;;;;;;;;;;;;;3.70;100.00;102688.91;4877741;29;19934;-52
2021/10/24 01:18:14;;;;;;;;;;;;;;;3.66;100.00;102684.63;4896690;29;19927;-48
2021/10/24 01:20:41;;;;;;;;;;;;;;;3.66;100.00;102688.06;4895407;29;19927;-53
2021/10/24 01:23:09;;;;;;;;;;;;;;;3.68;100.00;102681.13;4896103;29;20030;-52
2021/10/24 01:25:36;;;;;;;;;;;;;;;3.70;100.00;102681.13;4896863;29;19927;-50
2021/10/24 01:28:03;;;;;;;;;;;;;;;3.61;100.00;102671.63;4894715;29;19927;-51
2021/10/24 01:30:29;;;;;;;;;;;;;;;3.60;100.00;102675.13;4876858;29;19967;-51
2021/10/24 01:32:56;;;;;;;;;;;;;;;3.55;100.00;102671.66;4877921;29;19931;-54
2021/10/24 01:35:22;;;;;;;;;;;;;;;3.60;100.00;102674.22;4876598;29;19927;-52
2021/10/24 01:37:49;;;;;;;;;;;;;;;3.70;100.00;102665.50;4877495;29;19932;-51
2021/10/24 01:40:16;;;;;;;;;;;;;;;3.70;100.00;102668.09;4861058;29;19932;-51
2021/10/24 01:42:54;;;;;;;;;;;;;;;3.68;100.00;102672.44;4875115;29;19974;-53
2021/10/24 01:45:23;;;;;;;;;;;;;;;3.62;100.00;102668.16;4874567;29;19928;-50
2021/10/24 01:47:50;;;;;;;;;;;;;;;3.55;100.00;102662.13;4875322;29;20471;-53
2021/10/24 01:50:17;;;;;;;;;;;;;;;3.51;100.00;102669.97;4875306;29;19979;-52
2021/10/24 01:52:47;;;;;;;;;;;;;;;3.51;100.00;102664.75;4875352;29;19927;-54
2021/10/24 01:55:14;;;;;;;;;;;;;;;3.50;100.00;102657.81;4875836;29;20280;-52
2021/10/24 01:57:42;;;;;;;;;;;;;;;3.48;100.00;102654.38;4876118;29;20360;-53
2021/10/24 02:00:09;;;;;;;;;;;;;;;3.42;100.00;102651.81;4877638;29;20339;-54
2021/10/24 02:02:36;;;;;;;;;;;;;;;3.42;100.00;102650.06;4875677;29;20312;-53
2021/10/24 02:05:03;;;;;;;;;;;;;;;3.40;100.00;102650.97;4877507;29;19934;-53
2021/10/24 02:07:29;;;;;;;;;;;;;;;3.44;100.00;102644.88;4876855;29;20344;-53
2021/10/24 02:09:56;;;;;;;;;;;;;;;3.45;100.00;102639.66;4874758;29;19956;-55
2021/10/24 02:12:22;;;;;;;;;;;;;;;3.50;100.00;102639.59;4861161;29;19927;-54
2021/10/24 02:14:49;;;;;;;;;;;;;;;3.51;100.00;102634.41;4878274;29;19932;-53
2021/10/24 02:17:16;;;;;;;;;;;;;;;3.55;99.84;102637.84;4876514;29;19928;-53
2021/10/24 02:19:43;;;;;;;;;;;;;;;3.42;100.00;102634.44;4876255;29;20388;-55
2021/10/24 02:22:09;;;;;;;;;;;;;;;3.40;100.00;102625.81;4876427;29;20019;-53
2021/10/24 02:24:37;;;;;;;;;;;;;;;3.28;100.00;102628.50;4875691;29;19928;-52
2021/10/24 02:27:03;;;;;;;;;;;;;;;3.28;100.00;102624.13;4877280;29;19935;-54
2021/10/24 02:29:30;;;;;;;;;;;;;;;3.34;100.00;102616.31;4876639;29;19983;-54
2021/10/24 02:31:57;;;;;;;;;;;;;;;3.28;100.00;102621.53;4894438;29;19963;-54
2021/10/24 02:34:23;;;;;;;;;;;;;;;3.42;100.00;102624.03;4897852;29;19975;-54
2021/10/24 02:36:50;;;;;;;;;;;;;;;3.33;100.00;102621.53;4898741;29;19936;-56
2021/10/24 02:39:16;;;;;;;;;;;;;;;3.29;100.00;102617.22;4884036;29;19966;-54
2021/10/24 02:41:43;;;;;;;;;;;;;;;3.33;100.00;102605.94;4897825;29;19984;-55
2021/10/24 02:44:10;;;;;;;;;;;;;;;3.24;100.00;102606.81;4898381;29;19952;-45
2021/10/24 02:46:37;;;;;;;;;;;;;;;3.22;100.00;102600.78;4900673;29;20398;-54
2021/10/24 02:49:03;;;;;;;;;;;;;;;3.27;100.00;102598.16;4882474;29;20007;-46
2021/10/24 02:51:30;;;;;;;;;;;;;;;3.16;100.00;102606.91;4897882;29;19928;-54
2021/10/24 02:53:57;;;;;;;;;;;;;;;3.18;100.00;102599.94;4897616;29;19935;-45
2021/10/24 02:56:24;;;;;;;;;;;;;;;3.20;100.00;102602.53;4897533;29;20422;-48
2021/10/24 02:58:50;;;;;;;;;;;;;;;3.18;100.00;102592.13;4896919;29;20018;-46
2021/10/24 03:01:17;;;;;;;;;;;;;;;3.14;100.00;102597.38;4896704;29;20462;-44
2021/10/24 03:03:43;;;;;;;;;;;;;;;3.13;100.00;102593.88;4881524;29;19995;-44
2021/10/24 03:06:10;;;;;;;;;;;;;;;3.15;100.00;102592.16;4897882;29;19942;-46
2021/10/24 03:08:37;;;;;;;;;;;;;;;3.08;100.00;102595.69;4880864;29;19936;-46
2021/10/24 03:11:03;;;;;;;;;;;;;;;3.07;100.00;102595.66;4883302;29;20323;-47
2021/10/24 03:13:30;;;;;;;;;;;;;;;2.99;100.00;102590.53;4880168;29;19979;-47
2021/10/24 03:15:58;;;;;;;;;;;;;;;2.98;100.00;102594.00;4896807;29;20022;-46
2021/10/24 03:18:25;;;;;;;;;;;;;;;3.07;100.00;102591.34;4886477;29;19995;-45
2021/10/24 03:20:51;;;;;;;;;;;;;;;2.98;100.00;102583.59;4880807;29;19928;-45
2021/10/24 03:23:18;;;;;;;;;;;;;;;2.98;100.00;102583.59;4864821;29;19932;-46
2021/10/24 03:25:46;;;;;;;;;;;;;;;2.96;100.00;102587.91;4881121;29;19980;-44
2021/10/24 03:28:13;;;;;;;;;;;;;;;2.99;100.00;102587.91;4881646;29;19935;-45
2021/10/24 03:30:39;;;;;;;;;;;;;;;2.87;100.00;102584.50;4878499;29;19971;-54
2021/10/24 03:33:06;;;;;;;;;;;;;;;2.92;100.00;102587.09;4877833;29;19936;-55
2021/10/24 03:35:33;;;;;;;;;;;;;;;2.95;100.00;102587.06;4879402;29;19927;-51
2021/10/24 03:37:59;;;;;;;;;;;;;;;2.92;100.00;102578.41;4881314;29;19932;-53
2021/10/24 03:40:26;;;;;;;;;;;;;;;2.92;100.00;102579.28;4881398;29;19928;-49
2021/10/24 03:42:53;;;;;;;;;;;;;;;2.99;100.00;102586.19;4881242;29;19984;-51
2021/10/24 03:45:19;;;;;;;;;;;;;;;3.03;100.00;102582.69;4880160;29;19932;-52
2021/10/24 03:47:46;;;;;;;;;;;;;;;2.99;100.00;102580.13;4878870;29;19928;-52
2021/10/24 03:50:13;;;;;;;;;;;;;;;2.94;100.00;102580.13;4877907;29;19932;-54
2021/10/24 03:52:39;;;;;;;;;;;;;;;2.91;100.00;102581.91;4878566;29;19984;-50
2021/10/24 03:55:11;;;;;;;;;;;;;;;2.83;100.00;102587.97;4861397;29;20476;-52
2021/10/24 03:57:40;;;;;;;;;;;;;;;2.80;100.00;102582.81;4878295;29;19931;-52
2021/10/24 04:00:10;;;;;;;;;;;;;;;2.84;100.00;102588.88;4876314;29;19968;-55
2021/10/24 04:03:09;;;;;;;;;;;;;;;2.82;100.00;102588.00;4878772;29;19935;-54
2021/10/24 04:05:36;;;;;;;;;;;;;;;2.85;100.00;102581.06;4858423;29;20273;-53
2021/10/24 04:08:03;;;;;;;;;;;;;;;2.83;100.00;102577.59;4877553;29;19976;-54
2021/10/24 04:10:29;;;;;;;;;;;;;;;2.88;100.00;102582.78;4877445;29;19983;-54
2021/10/24 04:12:56;;;;;;;;;;;;;;;2.82;100.00;102586.28;4877607;29;19983;-54
2021/10/24 04:15:23;;;;;;;;;;;;;;;2.80;100.00;102575.00;4876849;29;19935;-53
2021/10/24 04:17:50;;;;;;;;;;;;;;;2.78;100.00;102574.16;4879611;29;20003;-54
2021/10/24 04:20:18;;;;;;;;;;;;;;;2.76;100.00;102575.03;4880115;29;19927;-51
2021/10/24 04:22:45;;;;;;;;;;;;;;;2.74;100.00;102572.47;4880590;29;19927;-53
2021/10/24 04:25:12;;;;;;;;;;;;;;;2.75;100.00;102579.34;4861864;29;19932;-54
2021/10/24 04:27:39;;;;;;;;;;;;;;;2.80;100.00;102571.56;4877714;29;20024;-54
2021/10/24 04:30:07;;;;;;;;;;;;;;;2.77;100.00;102569.84;4879606;29;19935;-50
2021/10/24 04:32:34;;;;;;;;;;;;;;;2.76;100.00;102575.03;4875850;29;19931;-52
2021/10/24 04:35:01;;;;;;;;;;;;;;;2.73;100.00;102564.66;4873308;29;20498;-53
2021/10/24 04:37:27;;;;;;;;;;;;;;;2.75;100.00;102571.56;4879260;29;19927;-54
2021/10/24 04:39:54;;;;;;;;;;;;;;;2.72;100.00;102573.34;4895183;29;19935;-51
2021/10/24 04:42:21;;;;;;;;;;;;;;;2.65;100.00;102565.56;4893760;29;19952;-53
2021/10/24 04:44:47;;;;;;;;;;;;;;;2.69;100.00;102563.81;4875669;29;20356;-55
2021/10/24 04:47:14;;;;;;;;;;;;;;;2.63;100.00;102564.72;4875704;29;19927;-45
2021/10/24 04:49:41;;;;;;;;;;;;;;;2.58;100.00;102565.56;4876154;29;20395;-44
2021/10/24 04:52:07;;;;;;;;;;;;;;;2.54;100.00;102565.59;4862396;29;19936;-46
2021/10/24 04:54:35;;;;;;;;;;;;;;;2.58;100.00;102558.66;4882338;29;20323;-48
2021/10/24 04:57:03;;;;;;;;;;;;;;;2.57;100.00;102561.28;4875533;29;19935;-49
2021/10/24 04:59:29;;;;;;;;;;;;;;;2.50;100.00;102560.44;4875163;29;19935;-55
2021/10/24 05:01:56;;;;;;;;;;;;;;;2.57;100.00;102556.94;4878536;29;19928;-55
2021/10/24 05:04:23;;;;;;;;;;;;;;;2.61;100.00;102563.00;4876840;29;19928;-54
2021/10/24 05:06:49;;;;;;;;;;;;;;;2.49;100.00;102556.94;4891302;29;19935;-55
2021/10/24 05:09:17;;;;;;;;;;;;;;;2.52;100.00;102554.38;4898098;29;19927;-55
2021/10/24 05:11:44;;;;;;;;;;;;;;;2.47;100.00;102548.31;4895281;29;19992;-52
2021/10/24 05:14:11;;;;;;;;;;;;;;;2.44;100.00;102545.75;4862615;29;19928;-53
2021/10/24 05:16:38;;;;;;;;;;;;;;;2.43;100.00;102546.59;4894370;29;19928;-53
2021/10/24 05:19:05;;;;;;;;;;;;;;;2.37;100.00;102541.41;4878913;29;20311;-54
2021/10/24 05:21:31;;;;;;;;;;;;;;;2.42;100.00;102539.69;4880534;29;19927;-52
2021/10/24 05:24:00;;;;;;;;;;;;;;;2.44;100.00;102545.75;4898227;29;19978;-55
2021/10/24 05:26:26;;;;;;;;;;;;;;;2.43;100.00;102536.22;4897493;29;19935;-51
2021/10/24 05:28:53;;;;;;;;;;;;;;;2.32;100.00;102538.84;4880838;29;19935;-54
2021/10/24 05:31:20;;;;;;;;;;;;;;;2.37;100.00;102536.22;4897879;29;19938;-51
2021/10/24 05:33:47;;;;;;;;;;;;;;;2.34;100.00;102531.06;4881632;29;19927;-54
2021/10/24 05:36:13;;;;;;;;;;;;;;;2.32;100.00;102528.47;4898011;29;19931;-50
2021/10/24 05:38:40;;;;;;;;;;;;;;;2.27;100.00;102529.34;4897744;29;19938;-45
2021/10/24 05:41:07;;;;;;;;;;;;;;;2.30;100.00;102524.13;4897685;29;19931;-46
2021/10/24 05:43:33;;;;;;;;;;;;;;;2.24;100.00;102521.59;4893589;29;19931;-45
2021/10/24 05:46:00;;;;;;;;;;;;;;;2.37;100.00;102525.84;4894241;29;20352;-53
2021/10/24 05:48:27;;;;;;;;;;;;;;;2.29;100.00;102519.81;4896442;29;20401;-52
2021/10/24 05:50:53;;;;;;;;;;;;;;;2.18;100.00;102518.13;4897923;29;19928;-54
2021/10/24 05:53:21;;;;;;;;;;;;;;;2.29;100.00;102519.81;4897616;29;19938;-54
2021/10/24 05:55:48;;;;;;;;;;;;;;;2.20;100.00;102516.38;4895242;29;19927;-54
2021/10/24 05:58:14;;;;;;;;;;;;;;;2.20;100.00;102520.72;4877373;29;20456;-43
2021/10/24 06:00:41;;;;;;;;;;;;;;;2.17;100.00;102521.59;4893829;29;19931;-46
2021/10/24 06:03:08;;;;;;;;;;;;;;;2.14;100.00;102515.53;4878676;29;19978;-45
2021/10/24 06:05:35;;;;;;;;;;;;;;;2.14;100.00;102521.59;4879853;29;20025;-47
2021/10/24 06:08:02;;;;;;;;;;;;;;;2.15;100.00;102515.53;4897136;29;19935;-44
2021/10/24 06:10:39;;;;;;;;;;;;;;;2.19;100.00;102522.44;4897335;29;19935;-44
2021/10/24 06:13:08;;;;;;;;;;;;;;;2.18;100.00;102519.84;4882262;29;19928;-46
2021/10/24 06:15:39;;;;;;;;;;;;;;;2.13;100.00;102519.88;4897589;29;19927;-53
2021/10/24 06:18:06;;;;;;;;;;;;;;;2.13;100.00;102517.28;4879142;29;20344;-53
2021/10/24 06:20:33;;;;;;;;;;;;;;;2.11;100.00;102511.22;4889462;29;19975;-53
2021/10/24 06:23:00;;;;;;;;;;;;;;;2.17;100.00;102516.41;4881814;29;19928;-50
2021/10/24 06:25:32;;;;;;;;;;;;;;;2.11;100.00;102513.81;4876533;29;19932;-55
2021/10/24 06:27:58;;;;;;;;;;;;;;;2.07;100.00;102506.91;4874478;29;19928;-52
2021/10/24 06:30:25;;;;;;;;;;;;;;;2.03;100.00;102505.19;4862919;29;19928;-53
2021/10/24 06:32:52;;;;;;;;;;;;;;;2.01;100.00;102497.41;4878768;29;20406;-56
2021/10/24 06:35:18;;;;;;;;;;;;;;;2.06;100.00;102493.94;4876411;29;19928;-56
2021/10/24 06:37:46;;;;;;;;;;;;;;;2.01;100.00;102500.00;4876074;29;19928;-54
2021/10/24 06:40:13;;;;;;;;;;;;;;;2.07;100.00;102493.91;4874636;29;20328;-54
2021/10/24 06:42:40;;;;;;;;;;;;;;;2.03;100.00;102490.50;4877576;29;19984;-52
2021/10/24 06:45:07;;;;;;;;;;;;;;;2.05;100.00;102492.22;4877439;29;19928;-54
2021/10/24 06:47:34;;;;;;;;;;;;;;;2.06;100.00;102489.63;4877032;29;19928;-56
2021/10/24 06:50:01;;;;;;;;;;;;;;;2.11;100.00;102490.44;4882656;29;20430;-55
2021/10/24 06:52:28;;;;;;;;;;;;;;;2.13;100.00;102483.53;4858378;29;19976;-55
2021/10/24 06:54:55;;;;;;;;;;;;;;;2.14;100.00;102482.66;4874493;29;19928;-53
2021/10/24 06:57:22;;;;;;;;;;;;;;;2.22;100.00;102485.22;4874067;29;19935;-55
2021/10/24 06:59:49;;;;;;;;;;;;;;;2.29;100.00;102483.47;4881696;29;19936;-52
2021/10/24 07:02:17;;;;;;;;;;;;;;;2.63;100.00;102480.69;4876733;29;19928;-53
2021/10/24 07:04:44;;;;;;;;;;;;;;;2.93;100.00;102486.56;4873263;29;19938;-54
2021/10/24 07:07:11;;;;;;;;;;;;;;;3.31;100.00;102481.09;4876063;29;20369;-52
2021/10/24 07:09:37;;;;;;;;;;;;;;;3.57;100.00;102474.78;4874380;29;19932;-53
2021/10/24 07:12:09;;;;;;;;;;;;;;;3.74;100.00;102474.63;4876238;29;19927;-53
2021/10/24 07:14:35;;;;;;;;;;;;;;;3.74;100.00;102472.00;4873769;29;20023;-55
2021/10/24 07:17:02;;;;;;;;;;;;;;;4.10;100.00;102471.63;4870175;29;19951;-53
2021/10/24 07:19:29;;;;;;;;;;;;;;;4.08;100.00;102463.81;4878783;29;20030;-54
2021/10/24 07:21:55;;;;;;;;;;;;;;;4.30;100.00;102469.63;4879922;29;20031;-54
2021/10/24 07:24:22;;;;;;;;;;;;;;;4.44;100.00;102469.44;4880814;29;20268;-50
2021/10/24 07:26:49;;;;;;;;;;;;;;;4.70;100.00;102468.22;4889209;29;19984;-54
2021/10/24 07:29:15;;;;;;;;;;;;;;;4.83;100.00;102467.16;4896681;29;19934;-53
2021/10/24 07:31:42;;;;;;;;;;;;;;;5.03;100.00;102459.03;4896428;29;19927;-50
2021/10/24 07:34:09;;;;;;;;;;;;;;;5.30;99.96;102461.19;4881150;29;21007;-52
2021/10/24 07:36:35;;;;;;;;;;;;;;;5.28;100.00;102450.78;4898556;29;19986;-53
2021/10/24 07:39:02;;;;;;;;;;;;;;;5.40;100.00;102454.94;4897917;29;20007;-50
2021/10/24 07:41:29;;;;;;;;;;;;;;;5.47;100.00;102455.66;4895746;29;20391;-48
2021/10/24 07:43:56;;;;;;;;;;;;;;;5.63;100.00;102451.03;4896372;29;19927;-51
2021/10/24 07:46:22;;;;;;;;;;;;;;;5.73;99.84;102452.59;4896950;29;20307;-49
2021/10/24 07:48:52;;;;;;;;;;;;;;;5.74;99.95;102443.88;4883784;29;20383;-49
2021/10/24 07:51:19;;;;;;;;;;;;;;;5.76;99.91;102444.69;4899835;29;19934;-50
2021/10/24 07:53:46;;;;;;;;;;;;;;;6.03;98.71;102445.06;4900173;29;20288;-51
2021/10/24 07:56:12;;;;;;;;;;;;;;;6.15;99.47;102438.72;4899595;29;19935;-49
2021/10/24 07:58:39;;;;;;;;;;;;;;;6.19;98.51;102433.41;4899657;29;20534;-46
2021/10/24 08:01:07;;;;;;;;;;;;;;;6.40;98.64;102433.81;4899711;29;20291;-47
2021/10/24 08:03:34;;;;;;;;;;;;;;;6.97;97.47;102431.63;4882711;29;19931;-45
2021/10/24 08:06:01;;;;;;;;;;;;;;;7.11;95.13;102427.75;4899727;29;19931;-44
2021/10/24 08:08:28;;;;;;;;;;;;;;;7.17;94.35;102431.13;4867264;29;19927;-48
2021/10/24 08:10:54;;;;;;;;;;;;;;;7.29;94.30;102425.59;4896868;29;19927;-47
2021/10/24 08:13:21;;;;;;;;;;;;;;;7.61;92.39;102431.72;4895934;29;20415;-44
2021/10/24 08:15:48;;;;;;;;;;;;;;;7.59;92.76;102428.28;4879554;29;19933;-44
2021/10/24 08:18:15;;;;;;;;;;;;;;;7.50;91.99;102423.28;4899319;29;20019;-43
2021/10/24 08:20:44;;;;;;;;;;;;;;;7.49;91.68;102419.81;4897912;29;19927;-43
2021/10/24 08:23:11;;;;;;;;;;;;;;;7.62;93.73;102425.56;4899271;29;19928;-43
2021/10/24 08:25:38;;;;;;;;;;;;;;;7.64;89.71;102423.78;4896041;29;19938;-44
2021/10/24 08:28:05;;;;;;;;;;;;;;;7.70;90.42;102414.91;4895795;29;19971;-44
2021/10/24 08:30:31;;;;;;;;;;;;;;;7.67;90.95;102422.84;4894730;29;19990;-44
2021/10/24 08:32:58;;;;;;;;;;;;;;;7.68;90.64;102419.34;4895770;29;19931;-43
2021/10/24 08:35:25;;;;;;;;;;;;;;;7.97;90.00;102415.88;4896579;29;19931;-47
2021/10/24 08:37:52;;;;;;;;;;;;;;;7.95;91.02;102413.28;4898461;29;19928;-46
2021/10/24 08:40:19;;;;;;;;;;;;;;;7.79;88.35;102404.16;4894713;29;19932;-47
2021/10/24 08:42:51;;;;;;;;;;;;;;;8.01;87.59;102408.78;4895673;29;20292;-46
2021/10/24 08:45:18;;;;;;;;;;;;;;;8.32;87.77;102403.47;4896535;29;19928;-47
2021/10/24 08:47:44;;;;;;;;;;;;;;;8.31;87.88;102403.53;4894676;29;20450;-44
2021/10/24 08:50:11;;;;;;;;;;;;;;;8.40;88.41;102403.25;4897775;29;20387;-46
2021/10/24 08:52:39;;;;;;;;;;;;;;;8.54;85.89;102392.34;4881772;29;19932;-46
2021/10/24 08:55:07;;;;;;;;;;;;;;;8.52;86.15;102391.53;4881351;29;20395;-43
2021/10/24 08:57:34;;;;;;;;;;;;;;;8.72;86.58;102393.53;4895721;29;20390;-47
2021/10/24 09:00:01;;;;;;;;;;;;;;;8.80;84.93;102394.13;4877536;29;19935;-45
2021/10/24 09:02:48;;;;;;;;;;;;;;;8.83;83.91;102393.16;4896049;29;20415;-51
2021/10/24 09:05:27;;;;;;;;;;;;;;;9.01;85.74;102386.44;4894670;29;19932;-53
2021/10/24 09:07:56;;;;;;;;;;;;;;;9.47;87.34;102388.34;4898360;29;19950;-55
2021/10/24 09:10:32;;;;;;;;;;;;;;;9.63;84.95;102382.50;4881631;29;19931;-52
2021/10/24 09:13:06;;;;;;;;;;;;;;;9.79;83.62;102373.16;4898401;29;19931;-54
2021/10/24 09:15:53;;;;;;;;;;;;;;;9.88;82.28;102378.97;4881657;29;19928;-54
2021/10/24 09:18:21;;;;;;;;;;;;;;;9.80;78.30;102374.00;4895197;29;19932;-54
2021/10/24 09:20:51;;;;;;;;;;;;;;;9.98;80.05;102370.69;4895966;29;19935;-54
2021/10/24 09:23:18;;;;;;;;;;;;;;;10.02;77.99;102363.53;4878631;29;19932;-53
2021/10/24 09:25:48;;;;;;;;;;;;;;;10.33;78.32;102362.31;4880993;29;19927;-55
2021/10/24 09:28:20;;;;;;;;;;;;;;;10.44;78.31;102356.66;4897111;29;19934;-55
2021/10/24 09:31:05;;;;;;;;;;;;;;;10.86;75.85;102358.44;4892436;29;19927;-54
2021/10/24 09:33:41;;;;;;;;;;;;;;;10.98;74.64;102350.00;4895280;29;19937;-55
2021/10/24 09:36:08;;;;;;;;;;;;;;;10.95;72.71;102355.41;4897981;29;19927;-54
2021/10/24 09:38:37;;;;;;;;;;;;;;;11.16;73.87;102355.41;4897961;29;19927;-53
2021/10/24 09:41:04;;;;;;;;;;;;;;;11.44;72.34;102355.06;4897260;29;19931;-52
2021/10/24 09:43:31;;;;;;;;;;;;;;;11.74;70.05;102349.31;4876765;29;20688;-56
2021/10/24 09:45:59;;;;;;;;;;;;;;;11.47;69.84;102352.28;4864250;29;19927;-56
2021/10/24 09:48:31;;;;;;;;;;;;;;;11.81;68.76;102344.63;4881013;29;19927;-55
2021/10/24 09:50:59;;;;;;;;;;;;;;;11.94;69.37;102350.16;4894158;29;19928;-55
2021/10/24 09:53:26;;;;;;;;;;;;;;;12.64;67.88;102342.44;4893581;29;19931;-58
2021/10/24 09:55:53;;;;;;;;;;;;;;;13.24;67.18;102336.72;4894834;29;20009;-56
2021/10/24 09:58:20;;;;;;;;;;;;;;;13.43;64.28;102344.53;4895532;29;19927;-55
2021/10/24 10:00:47;;;;;;;;;;;;;;;13.54;64.41;102336.03;4897410;29;19928;-56
2021/10/24 10:03:14;;;;;;;;;;;;;;;13.57;62.74;102342.97;4881221;29;19927;-56
2021/10/24 10:05:40;;;;;;;;;;;;;;;13.29;63.32;102336.47;4896134;29;19928;-56
2021/10/24 10:08:14;;;;;;;;;;;;;;;13.78;64.06;102331.19;4896418;29;19932;-56
2021/10/24 10:10:44;;;;;;;;;;;;;;;14.01;61.75;102329.06;4878045;29;19927;-57
2021/10/24 10:13:11;;;;;;;;;;;;;;;14.00;62.26;102328.22;4896161;29;20403;-57
2021/10/24 10:15:42;;;;;;;;;;;;;;;13.95;60.42;102317.03;4893180;29;19936;-56
2021/10/24 10:18:09;;;;;;;;;;;;;;;14.05;61.72;102324.47;4877801;29;19935;-58
2021/10/24 10:21:08;;;;;;;;;;;;;;;14.41;60.25;102318.88;4897562;29;19928;-57
2021/10/24 10:23:38;;;;;;;;;;;;;;;14.22;58.63;102318.19;4893160;29;19927;-58
2021/10/24 10:26:25;;;;;;;;;;;;;;;14.71;58.72;102312.72;4897514;29;20083;-58
2021/10/24 10:28:52;;;;;;;;;;;;;;;15.14;57.80;102306.63;4890273;29;19931;-58
2021/10/24 10:31:18;;;;;;;;;;;;;;;15.02;56.68;102316.19;4891898;29;19927;-57
2021/10/24 10:34:06;;;;;;;;;;;;;;;15.07;57.12;102314.09;4893391;29;19927;-58
2021/10/24 10:36:45;;;;;;;;;;;;;;;15.56;56.48;102315.50;4877723;29;19931;-57
2021/10/24 10:39:30;;;;;;;;;;;;;;;15.40;55.54;102312.97;4897253;29;20296;-56
2021/10/24 10:41:58;;;;;;;;;;;;;;;15.01;56.46;102306.50;4897207;29;19927;-58
2021/10/24 10:44:24;;;;;;;;;;;;;;;15.23;55.93;102306.06;4880535;29;19927;-56
2021/10/24 10:46:51;;;;;;;;;;;;;;;15.53;57.20;102307.75;4897227;29;19931;-56
2021/10/24 10:49:18;;;;;;;;;;;;;;;15.35;54.52;102293.84;4896046;29;19939;-55
2021/10/24 10:51:44;;;;;;;;;;;;;;;15.64;55.39;102292.00;4897083;29;19939;-53
2021/10/24 10:54:11;;;;;;;;;;;;;;;16.13;52.87;102295.09;4896987;29;20348;-56
2021/10/24 10:56:42;;;;;;;;;;;;;;;16.49;53.45;102290.97;4898809;29;19936;-57
2021/10/24 10:59:12;;;;;;;;;;;;;;;16.38;52.31;102291.69;4900171;29;19927;-56
2021/10/24 11:01:39;;;;;;;;;;;;;;;16.24;52.38;102289.97;4897642;29;20572;-53
2021/10/24 11:04:15;;;;;;;;;;;;;;;16.25;51.88;102286.31;4897943;29;20035;-54
2021/10/24 11:06:55;;;;;;;;;;;;;;;15.96;54.00;102289.09;4898239;29;20462;-56
2021/10/24 11:09:41;;;;;;;;;;;;;;;16.36;52.93;102285.63;4880996;29;19934;-55
2021/10/24 11:12:30;;;;;;;;;;;;;;;15.99;52.15;102294.22;4900010;29;19928;-55
2021/10/24 11:15:17;;;;;;;;;;;;;;;16.49;51.84;102290.97;4900513;29;20307;-55
2021/10/24 11:17:45;;;;;;;;;;;;;;;16.45;51.01;102285.00;4900313;29;19928;-45
2021/10/24 11:20:12;;;;;;;;;;;;;;;16.48;50.54;102287.44;4881507;29;19931;-47
2021/10/24 11:22:43;;;;;;;;;;;;;;;16.55;50.43;102288.75;4898000;29;20351;-45
2021/10/24 11:25:09;;;;;;;;;;;;;;;16.72;51.94;102271.66;4897728;29;19927;-45
2021/10/24 11:27:36;;;;;;;;;;;;;;;17.03;48.98;102272.22;4897470;29;20411;-43
2021/10/24 11:30:04;;;;;;;;;;;;;;;16.62;50.86;102273.25;4879256;29;19927;-46
2021/10/24 11:32:35;;;;;;;;;;;;;;;17.08;49.27;102271.03;4896080;29;19931;-47
2021/10/24 11:35:14;;;;;;;;;;;;;;;16.69;50.60;102261.25;4881174;29;20387;-45
2021/10/24 11:37:46;;;;;;;;;;;;;;;16.37;49.87;102261.66;4881397;29;20443;-51
2021/10/24 11:40:13;;;;;;;;;;;;;;;16.51;50.11;102263.34;4900100;29;19931;-46
2021/10/24 11:42:41;;;;;;;;;;;;;;;16.59;50.32;102254.00;4898334;29;19927;-47
2021/10/24 11:45:20;;;;;;;;;;;;;;;16.67;50.54;102255.16;4895999;29;20030;-48
2021/10/24 11:48:00;;;;;;;;;;;;;;;16.68;50.08;102256.03;4880714;29;19927;-45
2021/10/24 11:50:46;;;;;;;;;;;;;;;16.13;51.46;102255.28;4897347;29;19975;-46
2021/10/24 11:53:17;;;;;;;;;;;;;;;16.25;51.22;102253.63;4897118;29;19987;-47
2021/10/24 11:55:43;;;;;;;;;;;;;;;15.82;53.35;102252.88;4897974;29;19934;-48
2021/10/24 12:01:10;;;;;;;;;;;;;;;16.27;49.92;102234.00;4888137;29;19928;-46
2021/10/24 12:03:40;;;;;;;;;;;;;;;16.39;51.21;102227.84;4897978;29;20029;-50
2021/10/24 12:06:07;;;;;;;;;;;;;;;16.80;50.49;102233.09;4896549;29;19927;-47
2021/10/24 12:08:38;;;;;;;;;;;;;;;16.81;49.92;102233.00;4895179;29;19927;-51
2021/10/24 12:11:06;;;;;;;;;;;;;;;17.15;49.06;102233.31;4880598;29;19927;-51
2021/10/24 12:13:33;;;;;;;;;;;;;;;17.01;48.84;102239.56;4879071;29;19983;-47
2021/10/24 12:16:01;;;;;;;;;;;;;;;16.69;50.06;102234.69;4881072;29;20380;-47
2021/10/24 12:18:28;;;;;;;;;;;;;;;16.80;49.45;102236.59;4899356;29;19935;-47
2021/10/24 12:20:55;;;;;;;;;;;;;;;17.22;49.35;102231.88;4897693;29;19928;-45
2021/10/24 12:23:25;;;;;;;;;;;;;;;17.04;48.07;102236.72;4899249;29;19989;-47
2021/10/24 12:25:54;;;;;;;;;;;;;;;17.49;48.28;102224.69;4899357;29;20304;-48
2021/10/24 12:28:25;;;;;;;;;;;;;;;17.15;48.13;102225.31;4882763;29;19931;-45
2021/10/24 12:30:57;;;;;;;;;;;;;;;17.18;48.70;102224.25;4897864;29;19927;-45
2021/10/24 12:33:41;;;;;;;;;;;;;;;17.42;48.24;102212.81;4899250;29;19931;-47
2021/10/24 12:36:11;;;;;;;;;;;;;;;18.03;46.64;102208.28;4899036;29;19931;-47
2021/10/24 12:38:45;;;;;;;;;;;;;;;17.87;47.64;102210.38;4899077;29;19938;-45
2021/10/24 12:41:12;;;;;;;;;;;;;;;17.84;46.82;102199.97;4899028;29;19963;-47
2021/10/24 12:43:46;;;;;;;;;;;;;;;18.18;45.59;102200.09;4899008;29;20410;-45
2021/10/24 12:46:12;;;;;;;;;;;;;;;18.33;44.71;102196.25;4894875;29;19935;-45
2021/10/24 12:48:40;;;;;;;;;;;;;;;18.47;44.30;102197.00;4895159;29;19942;-57